Time;durP1;ratioP1;P1;durP2;ratioP2;P2;SDS_P1;SDS_P2;PMS_P1;PMS_P2;Temp;Humidity;BMP_temperature;BMP_pressure;BME280_temperature;BME280_humidity;BME280_pressure;Samples;Min_cycle;Max_cycle;Signal;HPM_P1;HPM_P2
2021/12/17 00:00:34;;;;;;;23.88;11.80;;;11.00;84.80;;;;;;5060833;28;20059;-72
2021/12/17 00:05:46;;;;;;;26.02;12.48;;;11.00;84.80;;;;;;5062903;28;20025;-72
2021/12/17 00:08:13;;;;;;;25.50;11.98;;;10.90;84.70;;;;;;5057701;28;20347;-72
2021/12/17 00:10:39;;;;;;;28.50;13.18;;;10.90;84.80;;;;;;5074400;28;20036;-72
2021/12/17 00:13:05;;;;;;;23.63;11.05;;;10.90;84.80;;;;;;5075702;28;20035;-72
2021/12/17 00:15:31;;;;;;;26.05;13.77;;;10.90;84.80;;;;;;5056975;28;20460;-72
2021/12/17 00:18:06;;;;;;;27.75;12.63;;;10.90;84.80;;;;;;5073984;28;20024;-72
2021/12/17 00:40:24;;;;;;;29.67;13.38;;;10.90;84.80;;;;;;5074850;28;20291;-72
2021/12/17 00:53:18;;;;;;;28.80;12.40;;;10.80;84.90;;;;;;5073826;28;20039;-72
2021/12/17 00:55:44;;;;;;;31.05;14.85;;;10.80;84.90;;;;;;5074199;28;20100;-72
2021/12/17 00:58:10;;;;;;;31.13;14.10;;;10.80;84.90;;;;;;5074818;28;20120;-72
2021/12/17 01:00:35;;;;;;;31.50;13.60;;;10.90;85.00;;;;;;5073103;28;20024;-72
2021/12/17 01:03:03;;;;;;;31.00;13.50;;;10.90;85.00;;;;;;5073768;28;20104;-71
2021/12/17 01:05:32;;;;;;;28.40;12.82;;;10.90;85.00;;;;;;5056287;28;20033;-72
2021/12/17 01:08:00;;;;;;;25.38;11.95;;;10.80;85.00;;;;;;5057007;28;20093;-72
2021/12/17 01:10:34;;;;;;;34.10;15.95;;;10.90;85.00;;;;;;5058069;28;20025;-72
2021/12/17 01:13:17;;;;;;;31.45;14.45;;;10.90;85.00;;;;;;5053613;28;20090;-72
2021/12/17 01:15:58;;;;;;;27.92;13.38;;;10.90;85.00;;;;;;5053704;28;20063;-72
2021/12/17 01:18:51;;;;;;;30.60;14.77;;;10.80;85.00;;;;;;5073624;28;20111;-72
2021/12/17 01:21:32;;;;;;;33.75;14.75;;;10.90;85.10;;;;;;5052571;28;20029;-72
2021/12/17 01:36:12;;;;;;;30.23;14.00;;;10.70;85.20;;;;;;5068370;28;20373;-72
2021/12/17 01:43:48;;;;;;;36.30;13.75;;;10.70;85.30;;;;;;5073168;28;20034;-72
2021/12/17 01:46:20;;;;;;;33.03;14.65;;;10.70;85.30;;;;;;5072426;28;20056;-72
2021/12/17 01:49:22;;;;;;;31.40;14.65;;;10.70;85.30;;;;;;5072954;28;20349;-72
2021/12/17 01:59:58;;;;;;;27.23;13.35;;;10.70;85.30;;;;;;5072888;28;20031;-73
2021/12/17 02:02:24;;;;;;;33.83;13.65;;;10.70;85.40;;;;;;5056093;28;20029;-71
2021/12/17 02:04:50;;;;;;;25.63;11.80;;;10.70;85.40;;;;;;5072801;28;20448;-71
2021/12/17 02:07:15;;;;;;;23.23;10.45;;;10.80;85.40;;;;;;5072282;28;20042;-72
2021/12/17 02:12:20;;;;;;;19.88;9.52;;;10.80;85.40;;;;;;5072436;28;20044;-72
2021/12/17 02:28:57;;;;;;;16.75;8.25;;;10.80;85.20;;;;;;5072001;28;20146;-72
2021/12/17 02:31:32;;;;;;;16.67;8.50;;;10.80;85.20;;;;;;5071981;28;20031;-72
2021/12/17 02:34:19;;;;;;;15.60;7.72;;;10.80;85.20;;;;;;5073606;28;20043;-72
2021/12/17 02:36:46;;;;;;;17.77;7.70;;;10.80;85.20;;;;;;5055617;28;20020;-72
2021/12/17 02:47:29;;;;;;;17.33;8.23;;;10.70;85.20;;;;;;5073082;28;20025;-72
2021/12/17 02:49:56;;;;;;;18.92;9.40;;;10.70;85.20;;;;;;5072188;28;20056;-72
2021/12/17 02:52:28;;;;;;;20.08;9.50;;;10.80;85.20;;;;;;5071904;28;20033;-72
2021/12/17 02:54:55;;;;;;;18.30;9.57;;;10.70;85.20;;;;;;5072426;28;20036;-72
2021/12/17 02:57:21;;;;;;;16.85;8.65;;;10.70;85.20;;;;;;5055456;28;20090;-72
2021/12/17 02:59:46;;;;;;;19.30;9.75;;;10.70;85.30;;;;;;5074220;28;20028;-72
2021/12/17 03:02:13;;;;;;;17.58;8.55;;;10.70;85.30;;;;;;5059090;28;20449;-72
2021/12/17 03:04:40;;;;;;;17.35;8.48;;;10.80;85.30;;;;;;5075524;28;20077;-72
2021/12/17 03:07:12;;;;;;;17.17;8.77;;;10.80;85.30;;;;;;5076553;28;20409;-72
2021/12/17 03:10:00;;;;;;;18.33;8.15;;;10.80;85.30;;;;;;5077114;28;20036;-72
2021/12/17 03:12:36;;;;;;;18.52;9.60;;;10.80;85.30;;;;;;5075654;28;20319;-71
2021/12/17 03:15:19;;;;;;;18.38;9.23;;;10.80;85.30;;;;;;5075644;28;20048;-72
2021/12/17 03:25:49;;;;;;;16.98;8.18;;;10.80;85.40;;;;;;5073199;28;20105;-72
2021/12/17 03:28:15;;;;;;;18.30;8.82;;;10.70;85.40;;;;;;5053890;28;20048;-72
2021/12/17 03:30:41;;;;;;;19.25;9.73;;;10.80;85.40;;;;;;5055460;28;20132;-72
2021/12/17 03:33:07;;;;;;;19.70;9.13;;;10.70;85.30;;;;;;5072309;28;20033;-72
2021/12/17 03:35:33;;;;;;;20.10;9.20;;;10.80;85.40;;;;;;5075145;28;20055;-72
2021/12/17 03:37:58;;;;;;;17.98;8.95;;;10.70;85.30;;;;;;5053426;28;20052;-72
2021/12/17 03:40:26;;;;;;;20.40;10.10;;;10.70;85.30;;;;;;5054556;28;20119;-72
2021/12/17 03:43:00;;;;;;;18.17;9.40;;;10.70;85.40;;;;;;5060070;28;20464;-72
2021/12/17 03:45:26;;;;;;;22.70;9.27;;;10.70;85.40;;;;;;5058037;28;20070;-71
2021/12/17 03:48:00;;;;;;;18.88;8.98;;;10.70;85.40;;;;;;5070359;28;20016;-72
2021/12/17 03:50:26;;;;;;;17.08;8.25;;;10.70;85.40;;;;;;5055600;28;20035;-72
2021/12/17 03:52:52;;;;;;;20.27;9.93;;;10.70;85.40;;;;;;5054407;28;20112;-72
2021/12/17 03:55:22;;;;;;;18.85;8.95;;;10.80;85.50;;;;;;5040998;28;20115;-72
2021/12/17 03:57:48;;;;;;;21.85;9.25;;;10.80;85.50;;;;;;5038497;28;20420;-72
2021/12/17 04:00:14;;;;;;;20.23;8.02;;;10.80;85.50;;;;;;5057757;28;20128;-72
2021/12/17 04:02:44;;;;;;;18.50;8.57;;;10.70;85.50;;;;;;5064250;28;20033;-72
2021/12/17 04:05:16;;;;;;;22.13;9.27;;;10.80;85.50;;;;;;5071882;28;20032;-72
2021/12/17 04:08:04;;;;;;;19.67;9.68;;;10.70;85.50;;;;;;5057009;28;20067;-72
2021/12/17 04:10:52;;;;;;;18.42;9.27;;;10.70;85.50;;;;;;5052948;28;20117;-72
2021/12/17 04:13:31;;;;;;;19.15;9.75;;;10.70;85.50;;;;;;5073745;28;20021;-72
2021/12/17 04:16:09;;;;;;;22.73;9.73;;;10.80;85.60;;;;;;5072609;28;20508;-72
2021/12/17 04:18:41;;;;;;;19.02;9.68;;;10.70;85.50;;;;;;5055787;28;20070;-72
2021/12/17 04:21:14;;;;;;;20.00;9.40;;;10.80;85.60;;;;;;5053558;28;20131;-71
2021/12/17 04:23:41;;;;;;;22.83;10.35;;;10.70;85.60;;;;;;5054637;28;20154;-71
2021/12/17 04:26:07;;;;;;;21.77;10.13;;;10.70;85.60;;;;;;5052966;28;20048;-72
2021/12/17 04:28:36;;;;;;;19.50;8.15;;;10.70;85.60;;;;;;5055619;28;20126;-71
2021/12/17 04:31:02;;;;;;;22.45;10.55;;;10.70;86.20;;;;;;5056903;28;20369;-72
2021/12/17 04:33:31;;;;;;;20.02;8.93;;;10.70;85.60;;;;;;5054803;28;20032;-73
2021/12/17 04:35:57;;;;;;;17.65;8.15;;;10.70;85.60;;;;;;5055234;28;20036;-72
2021/12/17 04:38:25;;;;;;;18.65;8.00;;;10.70;85.60;;;;;;5055618;28;20020;-72
2021/12/17 04:40:52;;;;;;;18.10;8.50;;;10.70;85.60;;;;;;5069159;28;20017;-68
2021/12/17 04:46:05;;;;;;;20.90;9.73;;;10.70;85.60;;;;;;5068969;28;20117;-69
2021/12/17 04:59:37;;;;;;;18.25;7.97;;;10.70;85.70;;;;;;5077114;28;20031;-69
2021/12/17 05:02:03;;;;;;;18.23;8.55;;;10.70;85.70;;;;;;5055291;28;20107;-68
2021/12/17 05:04:37;;;;;;;20.63;8.40;;;10.70;85.70;;;;;;5070753;28;20028;-68
2021/12/17 05:07:06;;;;;;;17.67;8.75;;;10.70;85.70;;;;;;5072896;28;20040;-69
2021/12/17 05:09:43;;;;;;;17.80;7.97;;;10.70;85.70;;;;;;5057267;28;20029;-68
2021/12/17 05:20:40;;;;;;;17.88;7.90;;;10.70;85.80;;;;;;5072926;28;20333;-69
2021/12/17 05:23:06;;;;;;;16.98;7.38;;;10.70;85.70;;;;;;5072937;28;20025;-69
2021/12/17 05:25:31;;;;;;;22.40;8.77;;;10.70;85.80;;;;;;5053045;28;20082;-68
2021/12/17 05:28:01;;;;;;;18.02;8.73;;;10.70;85.80;;;;;;5037190;28;20115;-68
2021/12/17 05:30:31;;;;;;;20.00;9.13;;;10.70;85.80;;;;;;5071806;28;20036;-69
2021/12/17 05:32:58;;;;;;;21.67;9.98;;;10.70;85.80;;;;;;5073204;28;20028;-69
2021/12/17 05:35:26;;;;;;;19.65;9.52;;;10.70;85.80;;;;;;5072802;28;20027;-68
2021/12/17 05:37:52;;;;;;;18.73;8.95;;;10.70;85.80;;;;;;5072869;28;20021;-68
2021/12/17 05:40:18;;;;;;;19.63;10.48;;;10.70;85.80;;;;;;5072059;28;20124;-69
2021/12/17 05:42:47;;;;;;;21.85;10.52;;;10.70;85.80;;;;;;5073063;28;20099;-68
2021/12/17 05:45:22;;;;;;;20.63;9.45;;;10.70;85.90;;;;;;5072843;28;20025;-69
2021/12/17 05:47:49;;;;;;;18.70;9.13;;;10.70;85.90;;;;;;5072691;28;20310;-69
2021/12/17 05:50:15;;;;;;;20.60;9.77;;;10.70;85.90;;;;;;5071961;28;20119;-69
2021/12/17 05:52:41;;;;;;;18.35;9.20;;;10.70;85.90;;;;;;5072298;28;20055;-69
2021/12/17 05:55:09;;;;;;;18.95;8.23;;;10.70;85.90;;;;;;5072441;28;20481;-70
2021/12/17 05:57:35;;;;;;;21.42;10.20;;;10.70;85.90;;;;;;5056367;28;20119;-68
2021/12/17 06:00:01;;;;;;;23.55;11.30;;;10.70;85.90;;;;;;5071847;28;20174;-68
2021/12/17 06:02:30;;;;;;;19.85;9.00;;;10.70;85.90;;;;;;5073036;28;20024;-69
2021/12/17 06:04:56;;;;;;;19.15;10.13;;;10.70;86.00;;;;;;5056193;28;20020;-68
2021/12/17 06:07:29;;;;;;;20.95;9.70;;;10.70;85.90;;;;;;5056137;28;20471;-68
2021/12/17 06:10:01;;;;;;;21.98;9.82;;;10.70;86.00;;;;;;5072322;28;20381;-68
2021/12/17 06:12:31;;;;;;;18.52;9.18;;;10.70;86.00;;;;;;5072978;28;20130;-68
2021/12/17 06:14:57;;;;;;;22.85;9.63;;;10.70;86.00;;;;;;5073140;28;20123;-68
2021/12/17 06:17:23;;;;;;;20.85;9.77;;;10.70;85.90;;;;;;5073430;28;20114;-68
2021/12/17 06:19:49;;;;;;;17.85;8.50;;;10.70;85.90;;;;;;5056273;28;20108;-68
2021/12/17 06:22:16;;;;;;;19.83;9.48;;;10.70;85.90;;;;;;5056637;28;20020;-69
2021/12/17 06:24:45;;;;;;;18.63;9.18;;;10.70;85.90;;;;;;5073309;28;20033;-68
2021/12/17 06:27:13;;;;;;;21.38;9.27;;;10.70;86.00;;;;;;5073267;28;20028;-68
2021/12/17 06:29:40;;;;;;;23.45;10.60;;;10.70;85.90;;;;;;5055887;28;20106;-68
2021/12/17 06:32:11;;;;;;;24.88;11.10;;;10.70;85.90;;;;;;5072969;28;20334;-68
2021/12/17 06:34:38;;;;;;;22.65;11.43;;;10.70;86.00;;;;;;5059715;28;20029;-69
2021/12/17 06:37:05;;;;;;;22.50;10.23;;;10.70;86.00;;;;;;5056593;28;20457;-68
2021/12/17 06:39:32;;;;;;;23.17;10.82;;;10.70;86.00;;;;;;5057816;28;20120;-68
2021/12/17 06:41:57;;;;;;;22.42;10.68;;;10.70;86.00;;;;;;5075933;28;20058;-68
2021/12/17 06:44:25;;;;;;;20.70;9.70;;;10.70;86.00;;;;;;5076439;28;20025;-70
2021/12/17 06:47:01;;;;;;;22.45;10.00;;;10.70;85.90;;;;;;5055842;28;20108;-71
2021/12/17 06:59:03;;;;;;;22.02;9.57;;;10.70;85.90;;;;;;5070166;28;20115;-71
2021/12/17 07:08:39;;;;;;;18.67;8.20;;;10.70;86.00;;;;;;5016171;28;20045;-69
2021/12/17 07:10:43;;;;;;;19.67;10.30;;;10.70;86.00;;;;;;4998454;28;20540;-69
2021/12/17 07:34:46;;;;;;;19.88;8.70;;;10.70;86.10;;;;;;5014540;28;20030;-69
2021/12/17 07:39:40;;;;;;;18.52;8.65;;;10.70;86.10;;;;;;5071325;28;20052;-70
2021/12/17 07:42:19;;;;;;;18.55;8.32;;;10.70;86.10;;;;;;5074945;28;20028;-69
2021/12/17 07:45:02;;;;;;;17.88;7.88;;;10.70;86.10;;;;;;5073375;28;20024;-69
2021/12/17 07:47:56;;;;;;;14.38;5.97;;;10.70;86.10;;;;;;5060635;28;20115;-68
2021/12/17 07:50:33;;;;;;;16.10;7.13;;;10.70;86.10;;;;;;5074553;28;20032;-69
2021/12/17 07:53:10;;;;;;;14.43;6.75;;;10.70;86.00;;;;;;5070440;28;20028;-69
2021/12/17 07:55:42;;;;;;;13.88;6.70;;;10.70;86.00;;;;;;5074034;28;20460;-68
2021/12/17 07:58:11;;;;;;;13.10;5.97;;;10.70;86.00;;;;;;5056498;28;20017;-68
2021/12/17 08:00:40;;;;;;;12.27;5.65;;;10.70;86.00;;;;;;5061772;28;20050;-67
2021/12/17 08:03:05;;;;;;;15.63;5.80;;;10.70;85.90;;;;;;5064060;28;20132;-68
2021/12/17 08:05:57;;;;;;;13.63;5.75;;;10.80;85.90;;;;;;5056053;28;20055;-68
2021/12/17 08:08:24;;;;;;;11.35;5.25;;;10.80;85.90;;;;;;5071068;28;20093;-72
2021/12/17 08:11:00;;;;;;;12.05;5.50;;;10.70;85.80;;;;;;5056707;28;20031;-68
2021/12/17 08:13:30;;;;;;;11.48;5.18;;;10.80;85.80;;;;;;5074254;28;20100;-68
2021/12/17 08:16:12;;;;;;;13.15;5.75;;;10.80;85.80;;;;;;5073967;28;20056;-68
2021/12/17 08:18:56;;;;;;;12.25;5.50;;;10.80;85.80;;;;;;5074618;28;20093;-69
2021/12/17 08:24:44;;;;;;;11.57;5.20;;;10.80;85.70;;;;;;5074581;28;20457;-69
2021/12/17 08:32:07;;;;;;;10.27;4.32;;;10.80;85.60;;;;;;5074079;28;20055;-68
2021/12/17 08:34:46;;;;;;;12.65;5.25;;;10.80;85.60;;;;;;5074134;28;20040;-68
2021/12/17 08:37:13;;;;;;;11.82;5.25;;;10.80;85.50;;;;;;5056745;28;20052;-67
2021/12/17 08:39:39;;;;;;;10.35;4.57;;;10.80;85.50;;;;;;5074064;28;20409;-69
2021/12/17 08:42:23;;;;;;;12.10;5.15;;;10.80;85.50;;;;;;5073492;28;20043;-68
2021/12/17 08:44:50;;;;;;;10.82;4.47;;;10.80;85.40;;;;;;5073605;28;20024;-69
2021/12/17 08:47:36;;;;;;;9.70;5.13;;;10.80;85.30;;;;;;5073440;28;20050;-68
2021/12/17 08:50:06;;;;;;;10.65;4.55;;;10.80;85.30;;;;;;5073920;28;20032;-68
2021/12/17 08:52:33;;;;;;;11.43;5.07;;;10.80;85.20;;;;;;5073502;28;20396;-68
2021/12/17 08:54:59;;;;;;;11.27;5.00;;;10.80;85.20;;;;;;5074414;28;20107;-68
2021/12/17 08:57:24;;;;;;;9.95;4.13;;;10.80;85.20;;;;;;5055965;28;20027;-67
2021/12/17 08:59:51;;;;;;;12.05;4.85;;;10.90;85.20;;;;;;5057606;28;20020;-67
2021/12/17 09:02:25;;;;;;;12.75;4.90;;;10.90;85.20;;;;;;5053749;28;20025;-68
2021/12/17 09:04:59;;;;;;;9.50;4.60;;;10.90;85.10;;;;;;5061099;28;20033;-66
2021/12/17 09:07:25;;;;;;;11.57;5.00;;;10.90;85.10;;;;;;5073206;28;20066;-67
2021/12/17 09:10:06;;;;;;;10.00;4.57;;;10.90;85.10;;;;;;5073020;28;20517;-68
2021/12/17 09:12:33;;;;;;;11.10;5.03;;;10.90;85.00;;;;;;5073324;28;20020;-68
2021/12/17 09:15:00;;;;;;;11.60;4.32;;;10.90;85.60;;;;;;5073034;28;20618;-67
2021/12/17 09:17:45;;;;;;;9.25;3.75;;;10.90;84.90;;;;;;5074268;28;20035;-68
2021/12/17 09:20:13;;;;;;;11.07;4.20;;;10.90;84.80;;;;;;5073759;28;20028;-68
2021/12/17 09:22:39;;;;;;;9.98;4.22;;;10.90;84.80;;;;;;5056045;28;20013;-67
2021/12/17 09:25:08;;;;;;;11.63;4.70;;;10.90;84.80;;;;;;5073369;28;20031;-68
2021/12/17 09:27:55;;;;;;;10.45;4.45;;;10.90;84.70;;;;;;5073059;28;20101;-67
2021/12/17 09:30:43;;;;;;;8.05;3.15;;;10.90;84.60;;;;;;5073183;28;20044;-68
2021/12/17 09:33:09;;;;;;;9.52;3.63;;;10.90;84.60;;;;;;5073710;28;20077;-67
2021/12/17 09:35:34;;;;;;;8.32;3.42;;;10.90;85.20;;;;;;5074168;28;20036;-67
2021/12/17 09:38:00;;;;;;;7.45;2.90;;;10.90;84.40;;;;;;5073251;28;20021;-68
2021/12/17 09:40:26;;;;;;;7.85;3.45;;;10.90;84.30;;;;;;5071447;28;20514;-70
2021/12/17 09:42:51;;;;;;;6.25;2.65;;;10.90;84.20;;;;;;5056162;28;20021;-68
2021/12/17 09:45:18;;;;;;;6.22;2.63;;;10.90;84.10;;;;;;5072895;28;20029;-65
2021/12/17 09:47:46;;;;;;;7.63;3.05;;;10.90;84.00;;;;;;5072386;28;20097;-65
2021/12/17 09:50:14;;;;;;;7.05;2.70;;;10.90;83.90;;;;;;5074246;28;20414;-65
2021/12/17 09:52:40;;;;;;;8.18;3.17;;;10.90;83.90;;;;;;5074139;28;20456;-68
2021/12/17 09:55:07;;;;;;;6.07;2.55;;;10.90;83.90;;;;;;5081834;28;20024;-67
2021/12/17 09:57:36;;;;;;;7.88;3.65;;;10.90;83.90;;;;;;5072483;28;20506;-68
2021/12/17 10:00:16;;;;;;;8.55;3.63;;;10.90;84.50;;;;;;5072522;28;20021;-68
2021/12/17 10:02:46;;;;;;;7.60;3.13;;;10.90;83.70;;;;;;5071876;28;20426;-68
2021/12/17 10:05:27;;;;;;;6.60;2.85;;;10.90;83.70;;;;;;5073817;28;20029;-67
2021/12/17 10:07:59;;;;;;;7.43;2.88;;;10.90;83.60;;;;;;5053813;28;20033;-67
2021/12/17 10:10:42;;;;;;;8.05;3.65;;;10.90;83.60;;;;;;5059004;28;20031;-65
2021/12/17 10:13:16;;;;;;;6.85;2.95;;;10.90;83.60;;;;;;5093547;28;20101;-64
2021/12/17 10:15:48;;;;;;;8.18;2.90;;;10.90;83.50;;;;;;5077634;28;20032;-65
2021/12/17 10:18:14;;;;;;;6.43;2.70;;;10.90;83.50;;;;;;5077830;28;20161;-65
2021/12/17 10:20:52;;;;;;;7.10;2.47;;;10.90;83.40;;;;;;5077056;28;20020;-65
2021/12/17 10:23:21;;;;;;;6.10;2.72;;;11.00;83.40;;;;;;5056250;28;20457;-64
2021/12/17 10:25:47;;;;;;;5.72;2.40;;;10.90;83.90;;;;;;5048906;28;20020;-65
2021/12/17 10:28:14;;;;;;;6.35;2.75;;;11.00;83.30;;;;;;5059799;28;20078;-64
2021/12/17 10:30:43;;;;;;;6.35;2.88;;;10.90;83.20;;;;;;5077584;28;20048;-65
2021/12/17 10:33:14;;;;;;;7.15;2.55;;;11.00;83.20;;;;;;5077798;28;20029;-65
2021/12/17 10:35:45;;;;;;;6.45;2.60;;;10.90;83.00;;;;;;5066968;28;20052;-65
2021/12/17 10:38:14;;;;;;;6.00;2.60;;;11.00;83.00;;;;;;5074777;28;20028;-65
2021/12/17 10:40:50;;;;;;;7.55;2.67;;;11.00;83.00;;;;;;5077432;28;20025;-66
2021/12/17 10:43:23;;;;;;;8.05;2.88;;;11.00;82.90;;;;;;5076304;28;20167;-65
2021/12/17 10:46:28;;;;;;;10.20;2.50;;;11.10;82.90;;;;;;5076197;28;20039;-65
2021/12/17 10:54:15;;;;;;;5.75;2.30;;;11.10;82.70;;;;;;5075736;28;20036;-64
2021/12/17 10:56:48;;;;;;;6.78;2.28;;;11.10;82.70;;;;;;5060458;28;20028;-65
2021/12/17 10:59:19;;;;;;;6.07;2.42;;;11.10;82.70;;;;;;5077348;28;20132;-65
2021/12/17 11:01:59;;;;;;;6.22;2.05;;;11.10;82.80;;;;;;5076312;28;20417;-65
2021/12/17 11:04:35;;;;;;;6.57;2.20;;;11.10;83.40;;;;;;5076974;28;20070;-64
2021/12/17 11:07:06;;;;;;;4.93;1.90;;;11.10;82.90;;;;;;5076134;28;20025;-65
2021/12/17 11:09:43;;;;;;;6.03;2.33;;;11.10;82.90;;;;;;5077351;28;20032;-65
2021/12/17 11:12:28;;;;;;;5.05;1.70;;;11.10;82.90;;;;;;5057033;28;20047;-65
2021/12/17 11:15:11;;;;;;;6.05;2.25;;;11.10;82.90;;;;;;5076086;28;20032;-65
2021/12/17 11:17:37;;;;;;;5.88;2.10;;;11.20;82.90;;;;;;5076554;28;20474;-65
2021/12/17 11:20:08;;;;;;;6.93;2.83;;;11.10;82.90;;;;;;5074270;28;20017;-65
2021/12/17 11:22:35;;;;;;;5.73;2.30;;;11.10;82.80;;;;;;5055168;28;20032;-65
2021/12/17 11:25:02;;;;;;;7.22;2.63;;;11.10;82.80;;;;;;5067434;28;20115;-65
2021/12/17 11:27:28;;;;;;;6.47;2.60;;;11.10;82.80;;;;;;5075758;28;20386;-66
2021/12/17 11:29:54;;;;;;;6.15;2.78;;;11.10;82.80;;;;;;5075757;28;20049;-66
2021/12/17 11:32:20;;;;;;;6.13;2.35;;;11.10;82.90;;;;;;5074599;28;20120;-65
2021/12/17 11:34:45;;;;;;;6.43;2.50;;;11.10;82.80;;;;;;5075084;28;20043;-65
2021/12/17 11:37:11;;;;;;;7.82;2.50;;;11.10;82.80;;;;;;5058504;28;20025;-66
2021/12/17 11:39:47;;;;;;;6.07;2.63;;;11.20;82.80;;;;;;5075236;28;20456;-66
2021/12/17 11:42:53;;;;;;;6.53;2.13;;;11.10;82.80;;;;;;5075953;28;20338;-65
2021/12/17 11:45:25;;;;;;;5.30;2.00;;;11.20;82.70;;;;;;5076460;28;20028;-65
2021/12/17 11:47:53;;;;;;;5.13;2.17;;;11.10;82.80;;;;;;5057668;28;20307;-65
2021/12/17 11:50:19;;;;;;;5.07;1.80;;;11.10;82.60;;;;;;5075218;28;20369;-65
2021/12/17 11:52:47;;;;;;;4.57;1.90;;;11.10;82.40;;;;;;5074675;28;20034;-66
2021/12/17 11:55:35;;;;;;;3.35;1.42;;;11.10;82.40;;;;;;5075616;28;20419;-65
2021/12/17 11:58:06;;;;;;;4.13;1.65;;;11.10;82.20;;;;;;5075001;28;20090;-66
2021/12/17 12:00:52;;;;;;;3.38;1.60;;;11.10;82.30;;;;;;5074402;28;20437;-66
2021/12/17 12:03:22;;;;;;;2.80;1.30;;;11.10;82.00;;;;;;5075569;28;20039;-66
2021/12/17 12:05:51;;;;;;;3.28;1.30;;;11.10;82.10;;;;;;5075070;28;20094;-67
2021/12/17 12:08:28;;;;;;;3.22;1.20;;;11.00;81.80;;;;;;5075510;28;20095;-66
2021/12/17 12:11:07;;;;;;;3.40;1.25;;;11.10;81.70;;;;;;5071536;28;20104;-66
2021/12/17 12:13:37;;;;;;;3.38;1.25;;;11.10;81.60;;;;;;5075447;28;20039;-67
2021/12/17 12:16:09;;;;;;;3.85;1.70;;;11.10;81.50;;;;;;5074232;28;20025;-65
2021/12/17 12:18:49;;;;;;;3.78;1.52;;;11.10;81.30;;;;;;5069670;28;20322;-66
2021/12/17 12:21:23;;;;;;;3.22;1.45;;;11.10;81.00;;;;;;5075807;28;20035;-67
2021/12/17 12:23:53;;;;;;;5.57;1.90;;;11.20;80.90;;;;;;5075253;28;20067;-66
2021/12/17 12:26:43;;;;;;;3.92;1.80;;;11.20;80.90;;;;;;5068016;28;20116;-66
2021/12/17 12:29:12;;;;;;;3.03;1.30;;;11.20;80.70;;;;;;5070455;28;20090;-66
2021/12/17 12:31:44;;;;;;;2.85;1.38;;;11.30;80.70;;;;;;5072748;28;20360;-65
2021/12/17 12:34:15;;;;;;;;;;;11.30;80.60;;;;;;5072735;28;20434;-66
2021/12/17 12:37:15;;;;;;;4.10;1.40;;;11.30;80.60;;;;;;5059134;28;20334;-66
2021/12/17 12:39:55;;;;;;;3.30;1.40;;;11.30;80.60;;;;;;5058706;28;20044;-66
2021/12/17 12:42:35;;;;;;;2.78;1.48;;;11.30;80.40;;;;;;5066958;28;20031;-66
2021/12/17 12:45:06;;;;;;;2.67;1.38;;;11.30;80.30;;;;;;5069423;28;20032;-66
2021/12/17 12:47:50;;;;;;;2.83;1.48;;;11.40;80.20;;;;;;5074188;28;20036;-65
2021/12/17 12:50:19;;;;;;;3.28;1.55;;;11.40;79.70;;;;;;5051384;28;20039;-65
2021/12/17 12:52:58;;;;;;;3.75;1.55;;;11.40;79.70;;;;;;5071097;28;20058;-65
2021/12/17 12:55:32;;;;;;;4.10;1.60;;;11.40;79.40;;;;;;5068669;28;20454;-65
2021/12/17 12:58:08;;;;;;;3.28;1.55;;;11.40;79.30;;;;;;5056471;28;20040;-65
2021/12/17 13:00:41;;;;;;;5.68;1.65;;;11.40;79.20;;;;;;5057748;28;20024;-65
2021/12/17 13:03:13;;;;;;;4.75;1.73;;;11.40;79.10;;;;;;5073701;28;20046;-65
2021/12/17 13:05:40;;;;;;;4.85;1.88;;;11.40;79.00;;;;;;5057928;28;20025;-65
2021/12/17 13:08:08;;;;;;;3.53;1.60;;;11.50;79.00;;;;;;5054208;28;20029;-66
2021/12/17 13:10:36;;;;;;;3.30;1.45;;;11.50;78.90;;;;;;5054444;28;20056;-65
2021/12/17 13:13:31;;;;;;;4.53;1.50;;;11.50;78.90;;;;;;5054628;28;20064;-68
2021/12/17 13:16:42;;;;;;;2.88;1.30;;;11.50;78.60;;;;;;5073797;28;20093;-69
2021/12/17 13:22:25;;;;;;;4.00;1.70;;;11.50;78.80;;;;;;5061951;28;20036;-70
2021/12/17 13:24:51;;;;;;;;;;;11.50;78.80;;;;;;5057340;28;20048;-69
2021/12/17 13:27:16;;;;;;;4.70;1.67;;;11.50;79.00;;;;;;5072928;28;19908;-69
2021/12/17 13:29:44;;;;;;;5.22;1.65;;;11.40;78.90;;;;;;5056272;28;20044;-69
2021/12/17 13:32:14;;;;;;;4.75;2.03;;;11.50;78.80;;;;;;5039925;28;20038;-69
2021/12/17 13:34:44;;;;;;;3.90;1.60;;;11.50;78.80;;;;;;5055713;28;20377;-69
2021/12/17 13:37:24;;;;;;;4.68;2.05;;;11.50;78.80;;;;;;5072766;28;20044;-70
2021/12/17 13:39:55;;;;;;;4.10;1.90;;;11.50;78.80;;;;;;5056780;28;20029;-69
2021/12/17 13:42:20;;;;;;;3.50;1.67;;;11.40;78.70;;;;;;5050324;28;20126;-69
2021/12/17 13:44:57;;;;;;;4.43;1.70;;;11.50;78.70;;;;;;5048496;28;20024;-70
2021/12/17 13:47:28;;;;;;;3.90;1.70;;;11.50;78.60;;;;;;5071335;28;20168;-69
2021/12/17 13:50:12;;;;;;;3.90;1.65;;;11.50;78.70;;;;;;5073244;28;20037;-69
2021/12/17 13:52:53;;;;;;;5.53;1.88;;;11.50;78.70;;;;;;5072424;28;20048;-70
2021/12/17 13:55:29;;;;;;;5.07;2.30;;;11.50;78.80;;;;;;5036520;28;20131;-69
2021/12/17 13:57:57;;;;;;;4.78;1.98;;;11.50;78.90;;;;;;5052852;28;20033;-70
2021/12/17 14:00:25;;;;;;;4.63;1.92;;;11.50;78.90;;;;;;5035773;28;20064;-67
2021/12/17 14:02:57;;;;;;;4.32;2.20;;;11.50;79.60;;;;;;5042132;28;20037;-69
2021/12/17 14:05:30;;;;;;;3.85;1.80;;;11.50;78.90;;;;;;5041522;28;20030;-70
2021/12/17 14:07:59;;;;;;;5.28;2.33;;;11.50;78.90;;;;;;5052497;28;20446;-70
2021/12/17 14:10:31;;;;;;;4.85;2.00;;;11.50;78.80;;;;;;5048654;28;20029;-70
2021/12/17 14:12:58;;;;;;;4.90;2.08;;;11.50;78.70;;;;;;5050195;28;20094;-70
2021/12/17 14:15:27;;;;;;;4.72;2.03;;;11.50;78.60;;;;;;5053782;28;20025;-70
2021/12/17 14:18:00;;;;;;;5.90;2.08;;;11.50;78.60;;;;;;5053444;28;20017;-70
2021/12/17 14:20:37;;;;;;;5.70;2.55;;;11.50;78.60;;;;;;5052993;28;20064;-71
2021/12/17 14:23:16;;;;;;;5.43;1.98;;;11.50;78.60;;;;;;5042984;28;20515;-70
2021/12/17 14:25:49;;;;;;;5.13;2.22;;;11.50;78.60;;;;;;5052867;28;20101;-69
2021/12/17 14:28:21;;;;;;;6.13;2.45;;;11.50;78.60;;;;;;5052495;28;20074;-69
2021/12/17 14:31:01;;;;;;;5.80;2.20;;;11.50;78.70;;;;;;5053164;28;20099;-69
2021/12/17 14:33:39;;;;;;;4.68;2.28;;;11.50;78.60;;;;;;5052893;28;20025;-70
2021/12/17 14:36:12;;;;;;;6.35;2.97;;;11.50;78.60;;;;;;5052804;28;20029;-69
2021/12/17 14:38:54;;;;;;;5.32;2.30;;;11.50;78.70;;;;;;5052601;28;20029;-70
2021/12/17 14:41:33;;;;;;;6.07;2.47;;;11.50;78.60;;;;;;5051471;28;20760;-68
2021/12/17 15:03:08;;;;;;;5.60;2.53;;;11.40;78.60;;;;;;5057159;28;20042;-68
2021/12/17 15:05:34;;;;;;;6.78;2.85;;;11.50;78.70;;;;;;5056537;28;20029;-68
2021/12/17 15:08:01;;;;;;;6.38;2.95;;;11.50;78.70;;;;;;5039653;28;20025;-68
2021/12/17 15:10:28;;;;;;;7.47;3.10;;;11.40;78.70;;;;;;5036143;28;20091;-68
2021/12/17 15:12:57;;;;;;;5.25;2.65;;;11.40;78.70;;;;;;5052211;28;20405;-67
2021/12/17 15:15:25;;;;;;;7.20;3.20;;;11.40;78.60;;;;;;5056167;28;20032;-68
2021/12/17 15:17:53;;;;;;;7.63;3.28;;;11.40;78.70;;;;;;5057201;28;20039;-68
2021/12/17 15:20:23;;;;;;;7.63;3.45;;;11.40;78.80;;;;;;5057277;28;20029;-68
2021/12/17 15:22:49;;;;;;;7.10;3.00;;;11.40;78.80;;;;;;5056479;28;20033;-68
2021/12/17 15:25:16;;;;;;;5.57;2.67;;;11.40;78.90;;;;;;5056657;28;20083;-68
2021/12/17 15:27:43;;;;;;;7.55;3.47;;;11.40;78.90;;;;;;5056498;28;20047;-68
2021/12/17 15:30:15;;;;;;;6.28;3.10;;;11.40;78.90;;;;;;5054259;28;20045;-68
2021/12/17 15:32:42;;;;;;;8.50;4.28;;;11.40;78.80;;;;;;5075746;28;20047;-68
2021/12/17 15:35:11;;;;;;;6.93;3.05;;;11.40;78.90;;;;;;5058982;28;20614;-68
2021/12/17 15:37:37;;;;;;;7.78;3.63;;;11.40;78.90;;;;;;5076170;28;20021;-68
2021/12/17 15:40:03;;;;;;;6.75;3.10;;;11.40;78.90;;;;;;5058638;28;20020;-68
2021/12/17 15:42:29;;;;;;;7.35;3.88;;;11.40;78.90;;;;;;5058629;28;20445;-68
2021/12/17 15:44:54;;;;;;;6.47;3.40;;;11.40;78.90;;;;;;5058280;28;20127;-68
2021/12/17 15:47:20;;;;;;;8.50;3.85;;;11.40;78.80;;;;;;5076461;28;20029;-68
2021/12/17 15:49:45;;;;;;;7.40;3.50;;;11.40;78.90;;;;;;5076526;28;20025;-69
2021/12/17 15:52:11;;;;;;;8.43;3.78;;;11.40;78.90;;;;;;5074176;28;20051;-67
2021/12/17 15:54:37;;;;;;;7.85;3.80;;;11.40;78.90;;;;;;5074457;28;20114;-67
2021/12/17 15:57:07;;;;;;;7.45;3.88;;;11.40;79.00;;;;;;5076125;28;20567;-67
2021/12/17 15:59:33;;;;;;;7.80;3.65;;;11.40;79.00;;;;;;5075276;28;20048;-69
2021/12/17 16:01:59;;;;;;;9.13;4.13;;;11.40;79.00;;;;;;5074649;28;20063;-69
2021/12/17 16:04:27;;;;;;;7.97;4.28;;;11.40;79.00;;;;;;5075143;28;20085;-69
2021/12/17 16:06:53;;;;;;;8.32;4.28;;;11.40;79.10;;;;;;5075592;28;20516;-69
2021/12/17 16:16:47;;;;;;;9.25;5.10;;;11.40;79.20;;;;;;5074626;28;20039;-69
2021/12/17 16:23:03;;;;;;;9.30;5.18;;;11.40;79.40;;;;;;5075402;28;20036;-66